createdAt,value
2022-10-31T00:00:47.487Z,94079.14
2022-10-31T00:05:54.922Z,94079.64
2022-10-31T00:11:01.758Z,94081.73
2022-10-31T00:16:17.333Z,94077.30
2022-10-31T00:21:25.644Z,94073.48
2022-10-31T00:26:34.093Z,94076.53
2022-10-31T00:31:41.187Z,94076.28
2022-10-31T00:36:48.190Z,94069.56
2022-10-31T00:41:55.228Z,94067.41
2022-10-31T00:47:02.506Z,94075.44
2022-10-31T00:52:09.499Z,94070.20
2022-10-31T00:57:16.888Z,94064.38
2022-10-31T01:02:24.625Z,94064.48
2022-10-31T01:07:31.824Z,94060.91
2022-10-31T01:12:45.303Z,94060.17
2022-10-31T01:17:52.705Z,94054.86
2022-10-31T01:23:00.553Z,94048.55
2022-10-31T01:28:07.538Z,94049.17
2022-10-31T01:33:14.436Z,94046.55
2022-10-31T01:38:21.130Z,94036.63
2022-10-31T01:43:47.719Z,94037.02
2022-10-31T01:48:57.371Z,94029.09
2022-10-31T01:54:08.763Z,94032.80
2022-10-31T01:59:20.178Z,94032.87
2022-10-31T02:04:29.572Z,94029.19
2022-10-31T02:09:37.836Z,94019.73
2022-10-31T02:14:45.488Z,94012.95
2022-10-31T02:20:11.551Z,94008.88
2022-10-31T02:25:43.445Z,94006.95
2022-10-31T02:31:34.779Z,94005.78
2022-10-31T02:37:00.185Z,94004.27
2022-10-31T02:42:22.980Z,93998.84
2022-10-31T02:47:34.448Z,94006.08
2022-10-31T02:52:41.379Z,94002.02
2022-10-31T02:57:48.093Z,93997.50
2022-10-31T03:03:13.456Z,94003.20
2022-10-31T03:08:38.405Z,93994.78
2022-10-31T03:14:04.032Z,94000.46
2022-10-31T03:19:15.039Z,94000.84
2022-10-31T03:24:23.913Z,93998.48
2022-10-31T03:29:35.202Z,93991.30
2022-10-31T03:34:45.138Z,93996.23
2022-10-31T03:39:52.567Z,94005.19
2022-10-31T03:45:06.658Z,94013.48
2022-10-31T03:50:16.506Z,94011.34
2022-10-31T03:55:36.331Z,94005.35
2022-10-31T04:06:00.294Z,94013.67
2022-10-31T04:11:12.367Z,94013.30
2022-10-31T04:16:21.881Z,94011.47
2022-10-31T04:21:34.138Z,94014.39
2022-10-31T04:26:43.528Z,94020.83
2022-10-31T04:31:51.465Z,94019.73
2022-10-31T04:36:58.152Z,94010.21
2022-10-31T04:42:05.616Z,94015.77
2022-10-31T04:47:12.567Z,94013.28
2022-10-31T04:52:22.428Z,94007.30
2022-10-31T04:57:29.110Z,94005.85
2022-10-31T05:02:38.501Z,94009.33
2022-10-31T05:07:48.948Z,94010.09
2022-10-31T05:13:00.108Z,94011.09
2022-10-31T05:18:07.358Z,94010.98
2022-10-31T05:23:14.048Z,94010.98
2022-10-31T05:28:20.698Z,94004.94
2022-10-31T05:33:27.340Z,94014.55
2022-10-31T05:38:34.010Z,94008.28
2022-10-31T05:43:40.648Z,94010.34
2022-10-31T05:48:47.347Z,94008.11
2022-10-31T05:53:54.374Z,94012.48
2022-10-31T05:59:01.001Z,94019.31
2022-10-31T06:04:08.837Z,94020.08
2022-10-31T06:09:19.731Z,94016.68
2022-10-31T06:14:26.572Z,94021.42
2022-10-31T06:19:35.908Z,94023.36
2022-10-31T06:24:47.083Z,94032.45
2022-10-31T06:29:55.223Z,94030.12
2022-10-31T06:35:02.367Z,94029.83
2022-10-31T06:40:13.623Z,94034.34
2022-10-31T06:45:24.194Z,94034.58
2022-10-31T06:50:32.902Z,94037.36
2022-10-31T06:55:39.926Z,94037.20
2022-10-31T07:00:47.921Z,94041.47
2022-10-31T07:05:56.284Z,94047.83
2022-10-31T07:11:06.249Z,94046.90
2022-10-31T07:16:16.693Z,94054.28
2022-10-31T07:21:24.128Z,94054.75
2022-10-31T07:26:31.953Z,94058.30
2022-10-31T07:31:41.444Z,94059.81
2022-10-31T07:36:49.298Z,94055.59
2022-10-31T07:41:56.833Z,94056.41
2022-10-31T07:47:06.296Z,94058.67
2022-10-31T07:52:14.029Z,94055.94
2022-10-31T07:57:25.079Z,94061.98
2022-10-31T08:02:32.393Z,94058.72
2022-10-31T08:07:43.955Z,94061.95
2022-10-31T08:13:00.339Z,94061.84
2022-10-31T08:18:09.594Z,94061.20
2022-10-31T08:23:18.289Z,94069.98
2022-10-31T08:28:29.052Z,94064.77
2022-10-31T08:33:36.706Z,94064.29
2022-10-31T08:38:49.308Z,94058.59
2022-10-31T08:44:00.615Z,94061.28
2022-10-31T08:49:08.659Z,94058.35
2022-10-31T08:54:15.888Z,94061.59
2022-10-31T08:59:24.050Z,94058.02
2022-10-31T09:04:31.560Z,94056.25
2022-10-31T09:09:40.776Z,94062.09
2022-10-31T09:14:47.608Z,94061.98
2022-10-31T09:19:54.413Z,94060.58
2022-10-31T09:25:02.629Z,94063.75
2022-10-31T09:30:12.764Z,94061.43
2022-10-31T09:35:23.083Z,94058.59
2022-10-31T09:40:41.088Z,94058.97
2022-10-31T09:46:04.876Z,94062.31
2022-10-31T09:51:22.299Z,94061.64
2022-10-31T09:56:38.799Z,94065.30
2022-10-31T10:02:02.679Z,94062.28
2022-10-31T10:07:40.803Z,94061.55
2022-10-31T10:12:59.468Z,94061.77
2022-10-31T10:18:21.072Z,94059.50
2022-10-31T10:24:18.230Z,94060.09
2022-10-31T10:30:03.557Z,94057.16
2022-10-31T10:35:26.117Z,94051.39
2022-10-31T10:40:35.857Z,94052.12
2022-10-31T10:46:06.448Z,94049.67
2022-10-31T10:51:39.040Z,94048.77
2022-10-31T10:57:02.192Z,94044.64
2022-10-31T11:02:23.974Z,94051.34
2022-10-31T11:07:44.969Z,94041.56
2022-10-31T11:13:06.632Z,94036.09
2022-10-31T11:18:27.064Z,94038.53
2022-10-31T11:23:35.969Z,94027.09
2022-10-31T11:28:43.556Z,94020.13
2022-10-31T11:33:57.322Z,94018.48
2022-10-31T11:39:08.809Z,94019.81
2022-10-31T11:44:26.442Z,94015.82
2022-10-31T11:49:46.397Z,94011.56
2022-10-31T11:55:07.292Z,94002.70
2022-10-31T12:00:33.769Z,93999.19
2022-10-31T12:05:45.324Z,93997.41
2022-10-31T12:11:22.237Z,93997.21
2022-10-31T12:16:35.182Z,93992.22
2022-10-31T12:22:28.859Z,93993.67
2022-10-31T12:28:10.753Z,93989.75
2022-10-31T12:33:25.882Z,93982.76
2022-10-31T12:39:11.096Z,93977.64
2022-10-31T12:44:43.312Z,93971.97
2022-10-31T12:50:16.771Z,93973.28
2022-10-31T12:55:47.267Z,93975.61
2022-10-31T13:00:59.606Z,93975.50
2022-10-31T13:06:14.903Z,93978.28
2022-10-31T13:11:38.746Z,93972.56
2022-10-31T13:16:51.911Z,93970.30
2022-10-31T13:22:11.881Z,93962.31
2022-10-31T13:27:35.792Z,93965.27
2022-10-31T13:32:55.853Z,93959.08
2022-10-31T13:38:32.701Z,93960.81
2022-10-31T13:44:23.387Z,93958.39
2022-10-31T13:49:37.862Z,93960.67
2022-10-31T13:54:51.323Z,93951.26
2022-10-31T14:00:03.697Z,93957.29
2022-10-31T14:05:26.609Z,93956.52
2022-10-31T14:10:45.322Z,93957.97
2022-10-31T14:16:05.084Z,93954.38
2022-10-31T14:21:32.213Z,93953.99
2022-10-31T14:26:39.984Z,93960.33
2022-10-31T14:31:57.119Z,93954.69
2022-10-31T14:37:44.330Z,93957.78
2022-10-31T14:43:04.686Z,93961.56
2022-10-31T14:48:51.994Z,93953.08
2022-10-31T14:54:01.404Z,93955.84
2022-10-31T14:59:16.485Z,93956.86
2022-10-31T15:04:31.325Z,93948.40
2022-10-31T15:09:43.152Z,93953.36
2022-10-31T15:14:51.629Z,93954.97
2022-10-31T15:20:00.775Z,93945.44
2022-10-31T15:25:11.754Z,93946.56
2022-10-31T15:30:29.977Z,93950.27
2022-10-31T15:35:37.957Z,93951.63
2022-10-31T15:40:50.271Z,93956.09
2022-10-31T15:46:01.410Z,93952.86
2022-10-31T15:51:08.797Z,93958.51
2022-10-31T15:56:29.326Z,93964.17
2022-10-31T16:01:39.398Z,93962.80
2022-10-31T16:06:47.933Z,93965.00
2022-10-31T16:11:56.872Z,93970.20
2022-10-31T16:17:06.258Z,93966.59
2022-10-31T16:22:18.064Z,93971.78
2022-10-31T16:27:33.398Z,93973.77
2022-10-31T16:33:01.498Z,93972.31
2022-10-31T16:38:11.227Z,93980.58
2022-10-31T16:43:21.407Z,93974.59
2022-10-31T16:48:28.414Z,93982.70
2022-10-31T16:53:40.651Z,93978.54
2022-10-31T16:58:47.648Z,93989.23
2022-10-31T17:03:54.423Z,93981.59
2022-10-31T17:09:03.094Z,93986.52
2022-10-31T17:14:10.839Z,93992.16
2022-10-31T17:19:21.249Z,93994.98
2022-10-31T17:24:29.074Z,93996.90
2022-10-31T17:29:38.204Z,93994.70
2022-10-31T17:34:46.666Z,93994.05
2022-10-31T17:39:53.938Z,93989.76
2022-10-31T17:45:02.647Z,93991.38
2022-10-31T17:50:11.699Z,93986.22
2022-10-31T17:55:20.587Z,93990.09
2022-10-31T18:00:27.276Z,93995.53
2022-10-31T18:05:35.059Z,93987.84
2022-10-31T18:10:42.370Z,93988.75
2022-10-31T18:15:49.144Z,93987.75
2022-10-31T18:21:00.680Z,93986.50
2022-10-31T18:26:07.702Z,93988.94
2022-10-31T18:31:15.192Z,93978.56
2022-10-31T18:36:21.964Z,93974.81
2022-10-31T18:41:29.849Z,93969.77
2022-10-31T18:46:37.827Z,93965.96
2022-10-31T18:51:46.043Z,93962.46
2022-10-31T18:56:53.412Z,93959.92
2022-10-31T19:02:00.850Z,93956.36
2022-10-31T19:07:07.684Z,93947.73
2022-10-31T19:12:14.659Z,93952.85
2022-10-31T19:17:21.784Z,93945.37
2022-10-31T19:22:28.903Z,93952.25
2022-10-31T19:27:35.855Z,93950.47
2022-10-31T19:32:43.209Z,93942.96
2022-10-31T19:37:51.078Z,93947.21
2022-10-31T19:43:00.225Z,93937.48
2022-10-31T19:48:09.671Z,93938.41
2022-10-31T19:53:17.164Z,93938.08
2022-10-31T19:58:24.303Z,93937.22
2022-10-31T20:03:31.677Z,93938.27
2022-10-31T20:08:39.673Z,93945.94
2022-10-31T20:13:47.635Z,93936.98
2022-10-31T20:18:56.054Z,93935.59
2022-10-31T20:24:06.918Z,93943.79
2022-10-31T20:29:18.095Z,93948.54
2022-10-31T20:34:25.612Z,93945.38
2022-10-31T20:39:33.519Z,93949.16
2022-10-31T20:44:40.589Z,93954.03
2022-10-31T20:49:47.411Z,93949.78
2022-10-31T20:54:54.140Z,93954.77
2022-10-31T21:00:01.139Z,93946.84
2022-10-31T21:05:12.193Z,93946.31
2022-10-31T21:10:19.410Z,93941.25
2022-10-31T21:15:26.339Z,93938.16
2022-10-31T21:20:33.244Z,93935.20
2022-10-31T21:25:42.550Z,93934.13
2022-10-31T21:30:52.216Z,93930.09
2022-10-31T21:35:59.690Z,93929.30
2022-10-31T21:41:11.311Z,93930.61
2022-10-31T21:46:25.701Z,93923.53
2022-10-31T21:51:36.894Z,93924.63
2022-10-31T21:56:44.820Z,93922.22
2022-10-31T22:01:53.069Z,93915.63
2022-10-31T22:07:00.092Z,93911.34
2022-10-31T22:12:08.383Z,93909.41
2022-10-31T22:17:15.548Z,93908.27
2022-10-31T22:22:22.448Z,93906.36
2022-10-31T22:27:29.222Z,93897.57
2022-10-31T22:32:36.168Z,93886.88
2022-10-31T22:37:43.424Z,93897.05
2022-10-31T22:42:50.432Z,93905.03
2022-10-31T22:47:57.698Z,93897.30
2022-10-31T22:53:04.604Z,93887.66
2022-10-31T22:58:11.723Z,93889.58
2022-10-31T23:03:19.052Z,93886.20
2022-10-31T23:08:26.632Z,93887.00
2022-10-31T23:13:51.407Z,93891.50
2022-10-31T23:18:58.447Z,93885.38
2022-10-31T23:24:05.782Z,93883.18
2022-10-31T23:29:13.252Z,93886.33
2022-10-31T23:34:19.978Z,93876.97
2022-10-31T23:39:27.173Z,93874.28
2022-10-31T23:44:34.130Z,93863.53
2022-10-31T23:49:40.842Z,93864.56
2022-10-31T23:54:47.952Z,93859.70
2022-10-31T23:59:55.065Z,93850.98
